sensor_id;sensor_type;location;lat;lon;timestamp;P1;durP1;ratioP1;P2;durP2;ratioP2
76417;SDS011;65250;47.602;19.002;2023-12-28T00:02:15;14.25;;;6.82;;
76417;SDS011;65250;47.602;19.002;2023-12-28T00:04:42;12.77;;;6.85;;
76417;SDS011;65250;47.602;19.002;2023-12-28T00:07:09;12.73;;;6.45;;
76417;SDS011;65250;47.602;19.002;2023-12-28T00:09:36;14.82;;;7.93;;
76417;SDS011;65250;47.602;19.002;2023-12-28T00:12:03;13.20;;;6.50;;
76417;SDS011;65250;47.602;19.002;2023-12-28T00:14:31;15.15;;;6.75;;
76417;SDS011;65250;47.602;19.002;2023-12-28T00:16:58;14.13;;;6.68;;
76417;SDS011;65250;47.602;19.002;2023-12-28T00:19:25;15.40;;;6.55;;
76417;SDS011;65250;47.602;19.002;2023-12-28T00:21:52;13.45;;;6.85;;
76417;SDS011;65250;47.602;19.002;2023-12-28T00:24:20;11.00;;;6.03;;
76417;SDS011;65250;47.602;19.002;2023-12-28T00:26:47;9.68;;;6.20;;
76417;SDS011;65250;47.602;19.002;2023-12-28T00:29:14;15.63;;;6.35;;
76417;SDS011;65250;47.602;19.002;2023-12-28T00:31:41;12.15;;;6.53;;
76417;SDS011;65250;47.602;19.002;2023-12-28T00:34:08;10.85;;;6.22;;
76417;SDS011;65250;47.602;19.002;2023-12-28T00:36:36;15.77;;;6.83;;
76417;SDS011;65250;47.602;19.002;2023-12-28T00:39:03;13.50;;;6.93;;
76417;SDS011;65250;47.602;19.002;2023-12-28T00:41:30;12.98;;;6.60;;
76417;SDS011;65250;47.602;19.002;2023-12-28T00:43:57;11.38;;;6.53;;
76417;SDS011;65250;47.602;19.002;2023-12-28T00:46:23;14.77;;;6.85;;
76417;SDS011;65250;47.602;19.002;2023-12-28T00:48:50;12.63;;;6.60;;
76417;SDS011;65250;47.602;19.002;2023-12-28T00:51:17;11.93;;;6.47;;
76417;SDS011;65250;47.602;19.002;2023-12-28T00:53:44;11.82;;;5.88;;
76417;SDS011;65250;47.602;19.002;2023-12-28T00:56:11;12.93;;;6.28;;
76417;SDS011;65250;47.602;19.002;2023-12-28T00:58:39;12.45;;;6.35;;
76417;SDS011;65250;47.602;19.002;2023-12-28T01:01:06;10.73;;;5.97;;
76417;SDS011;65250;47.602;19.002;2023-12-28T01:03:33;17.33;;;6.28;;
76417;SDS011;65250;47.602;19.002;2023-12-28T01:06:00;12.70;;;6.28;;
76417;SDS011;65250;47.602;19.002;2023-12-28T01:08:28;13.40;;;6.88;;
76417;SDS011;65250;47.602;19.002;2023-12-28T01:10:55;12.07;;;6.60;;
76417;SDS011;65250;47.602;19.002;2023-12-28T01:13:22;11.13;;;6.83;;
76417;SDS011;65250;47.602;19.002;2023-12-28T01:15:49;10.05;;;5.95;;
76417;SDS011;65250;47.602;19.002;2023-12-28T01:18:16;10.65;;;6.75;;
76417;SDS011;65250;47.602;19.002;2023-12-28T01:20:44;14.18;;;7.95;;
76417;SDS011;65250;47.602;19.002;2023-12-28T01:23:10;14.63;;;7.13;;
76417;SDS011;65250;47.602;19.002;2023-12-28T01:25:37;13.47;;;7.17;;
76417;SDS011;65250;47.602;19.002;2023-12-28T01:28:05;12.45;;;7.03;;
76417;SDS011;65250;47.602;19.002;2023-12-28T01:30:31;16.15;;;7.28;;
76417;SDS011;65250;47.602;19.002;2023-12-28T01:33:01;10.57;;;6.32;;
76417;SDS011;65250;47.602;19.002;2023-12-28T01:35:28;14.07;;;6.90;;
76417;SDS011;65250;47.602;19.002;2023-12-28T01:37:55;13.33;;;6.20;;
76417;SDS011;65250;47.602;19.002;2023-12-28T01:40:23;14.70;;;7.18;;
76417;SDS011;65250;47.602;19.002;2023-12-28T01:42:50;11.52;;;6.55;;
76417;SDS011;65250;47.602;19.002;2023-12-28T01:45:17;11.30;;;6.63;;
76417;SDS011;65250;47.602;19.002;2023-12-28T01:47:45;11.05;;;6.50;;
76417;SDS011;65250;47.602;19.002;2023-12-28T01:50:12;12.83;;;6.93;;
76417;SDS011;65250;47.602;19.002;2023-12-28T01:52:40;12.48;;;6.07;;
76417;SDS011;65250;47.602;19.002;2023-12-28T01:55:07;14.65;;;6.93;;
76417;SDS011;65250;47.602;19.002;2023-12-28T01:57:35;12.30;;;6.88;;
76417;SDS011;65250;47.602;19.002;2023-12-28T02:00:02;14.65;;;7.18;;
76417;SDS011;65250;47.602;19.002;2023-12-28T02:02:30;16.93;;;7.90;;
76417;SDS011;65250;47.602;19.002;2023-12-28T02:04:58;13.77;;;6.45;;
76417;SDS011;65250;47.602;19.002;2023-12-28T02:07:26;17.42;;;6.53;;
76417;SDS011;65250;47.602;19.002;2023-12-28T02:09:54;14.80;;;7.10;;
76417;SDS011;65250;47.602;19.002;2023-12-28T02:12:21;14.15;;;7.32;;
76417;SDS011;65250;47.602;19.002;2023-12-28T02:14:47;13.83;;;6.57;;
76417;SDS011;65250;47.602;19.002;2023-12-28T02:17:20;11.68;;;6.30;;
76417;SDS011;65250;47.602;19.002;2023-12-28T02:19:55;12.63;;;6.38;;
76417;SDS011;65250;47.602;19.002;2023-12-28T02:22:26;13.00;;;6.35;;
76417;SDS011;65250;47.602;19.002;2023-12-28T02:27:36;13.03;;;6.63;;
76417;SDS011;65250;47.602;19.002;2023-12-28T02:30:08;13.85;;;6.85;;
76417;SDS011;65250;47.602;19.002;2023-12-28T02:38:07;13.85;;;6.13;;
76417;SDS011;65250;47.602;19.002;2023-12-28T02:40:36;17.27;;;6.80;;
76417;SDS011;65250;47.602;19.002;2023-12-28T02:43:07;9.75;;;6.43;;
76417;SDS011;65250;47.602;19.002;2023-12-28T02:45:34;11.35;;;6.25;;
76417;SDS011;65250;47.602;19.002;2023-12-28T02:48:02;11.57;;;6.30;;
76417;SDS011;65250;47.602;19.002;2023-12-28T02:50:31;11.10;;;5.40;;
76417;SDS011;65250;47.602;19.002;2023-12-28T02:52:59;12.53;;;5.63;;
76417;SDS011;65250;47.602;19.002;2023-12-28T02:55:27;10.55;;;6.03;;
76417;SDS011;65250;47.602;19.002;2023-12-28T02:57:54;11.43;;;5.38;;
76417;SDS011;65250;47.602;19.002;2023-12-28T03:00:22;13.10;;;6.63;;
76417;SDS011;65250;47.602;19.002;2023-12-28T03:02:50;14.00;;;5.70;;
76417;SDS011;65250;47.602;19.002;2023-12-28T03:05:17;12.43;;;6.10;;
76417;SDS011;65250;47.602;19.002;2023-12-28T03:07:44;11.55;;;5.95;;
76417;SDS011;65250;47.602;19.002;2023-12-28T03:10:12;12.55;;;4.88;;
76417;SDS011;65250;47.602;19.002;2023-12-28T03:12:40;12.85;;;7.07;;
76417;SDS011;65250;47.602;19.002;2023-12-28T03:15:08;12.07;;;6.75;;
76417;SDS011;65250;47.602;19.002;2023-12-28T03:17:35;11.57;;;5.77;;
76417;SDS011;65250;47.602;19.002;2023-12-28T03:20:04;12.75;;;6.40;;
76417;SDS011;65250;47.602;19.002;2023-12-28T03:22:32;10.38;;;5.97;;
76417;SDS011;65250;47.602;19.002;2023-12-28T03:24:59;11.65;;;5.90;;
76417;SDS011;65250;47.602;19.002;2023-12-28T03:27:26;12.68;;;6.13;;
76417;SDS011;65250;47.602;19.002;2023-12-28T03:29:54;12.63;;;5.87;;
76417;SDS011;65250;47.602;19.002;2023-12-28T03:32:21;12.65;;;5.55;;
76417;SDS011;65250;47.602;19.002;2023-12-28T03:34:48;11.88;;;6.15;;
76417;SDS011;65250;47.602;19.002;2023-12-28T03:37:15;13.20;;;6.43;;
76417;SDS011;65250;47.602;19.002;2023-12-28T03:39:42;18.75;;;6.80;;
76417;SDS011;65250;47.602;19.002;2023-12-28T03:42:09;12.10;;;6.13;;
76417;SDS011;65250;47.602;19.002;2023-12-28T03:44:36;16.77;;;6.88;;
76417;SDS011;65250;47.602;19.002;2023-12-28T03:47:03;10.70;;;6.35;;
76417;SDS011;65250;47.602;19.002;2023-12-28T03:49:30;12.88;;;6.25;;
76417;SDS011;65250;47.602;19.002;2023-12-28T03:51:58;13.75;;;6.20;;
76417;SDS011;65250;47.602;19.002;2023-12-28T03:54:25;11.17;;;6.43;;
76417;SDS011;65250;47.602;19.002;2023-12-28T03:56:52;10.48;;;6.18;;
76417;SDS011;65250;47.602;19.002;2023-12-28T03:59:21;12.73;;;6.53;;
76417;SDS011;65250;47.602;19.002;2023-12-28T04:01:47;12.52;;;6.07;;
76417;SDS011;65250;47.602;19.002;2023-12-28T04:04:14;12.50;;;5.90;;
76417;SDS011;65250;47.602;19.002;2023-12-28T04:06:42;11.67;;;6.60;;
76417;SDS011;65250;47.602;19.002;2023-12-28T04:09:11;14.10;;;7.50;;
76417;SDS011;65250;47.602;19.002;2023-12-28T04:11:38;11.88;;;6.35;;
76417;SDS011;65250;47.602;19.002;2023-12-28T04:14:05;16.98;;;7.53;;
76417;SDS011;65250;47.602;19.002;2023-12-28T04:16:32;11.85;;;6.43;;
76417;SDS011;65250;47.602;19.002;2023-12-28T04:18:59;15.23;;;7.53;;
76417;SDS011;65250;47.602;19.002;2023-12-28T04:21:26;13.38;;;6.80;;
76417;SDS011;65250;47.602;19.002;2023-12-28T04:23:53;17.02;;;7.15;;
76417;SDS011;65250;47.602;19.002;2023-12-28T04:26:20;13.20;;;6.90;;
76417;SDS011;65250;47.602;19.002;2023-12-28T04:28:47;18.65;;;7.00;;
76417;SDS011;65250;47.602;19.002;2023-12-28T04:31:14;10.97;;;6.60;;
76417;SDS011;65250;47.602;19.002;2023-12-28T04:33:41;16.27;;;6.30;;
76417;SDS011;65250;47.602;19.002;2023-12-28T04:36:08;15.05;;;6.93;;
76417;SDS011;65250;47.602;19.002;2023-12-28T04:38:35;15.40;;;6.93;;
76417;SDS011;65250;47.602;19.002;2023-12-28T04:41:03;14.23;;;6.88;;
76417;SDS011;65250;47.602;19.002;2023-12-28T04:43:30;11.70;;;5.63;;
76417;SDS011;65250;47.602;19.002;2023-12-28T04:45:57;13.95;;;6.75;;
76417;SDS011;65250;47.602;19.002;2023-12-28T04:48:29;13.18;;;6.53;;
76417;SDS011;65250;47.602;19.002;2023-12-28T04:50:57;12.25;;;5.95;;
76417;SDS011;65250;47.602;19.002;2023-12-28T04:53:24;18.10;;;7.43;;
76417;SDS011;65250;47.602;19.002;2023-12-28T04:55:50;13.30;;;6.47;;
76417;SDS011;65250;47.602;19.002;2023-12-28T04:58:18;14.80;;;6.55;;
76417;SDS011;65250;47.602;19.002;2023-12-28T05:00:45;14.50;;;6.75;;
76417;SDS011;65250;47.602;19.002;2023-12-28T05:03:12;12.50;;;6.72;;
76417;SDS011;65250;47.602;19.002;2023-12-28T05:05:39;11.77;;;6.80;;
76417;SDS011;65250;47.602;19.002;2023-12-28T05:08:06;11.17;;;6.10;;
76417;SDS011;65250;47.602;19.002;2023-12-28T05:10:32;14.18;;;6.25;;
76417;SDS011;65250;47.602;19.002;2023-12-28T05:12:59;14.07;;;6.43;;
76417;SDS011;65250;47.602;19.002;2023-12-28T05:15:28;13.80;;;7.22;;
76417;SDS011;65250;47.602;19.002;2023-12-28T05:17:56;13.55;;;7.00;;
76417;SDS011;65250;47.602;19.002;2023-12-28T05:20:24;12.70;;;6.67;;
76417;SDS011;65250;47.602;19.002;2023-12-28T05:22:51;12.50;;;7.00;;
76417;SDS011;65250;47.602;19.002;2023-12-28T05:25:18;15.95;;;8.00;;
76417;SDS011;65250;47.602;19.002;2023-12-28T05:27:44;15.13;;;7.38;;
76417;SDS011;65250;47.602;19.002;2023-12-28T05:30:14;15.93;;;7.65;;
76417;SDS011;65250;47.602;19.002;2023-12-28T05:32:41;13.23;;;7.47;;
76417;SDS011;65250;47.602;19.002;2023-12-28T05:35:09;15.88;;;7.10;;
76417;SDS011;65250;47.602;19.002;2023-12-28T05:37:36;13.43;;;6.70;;
76417;SDS011;65250;47.602;19.002;2023-12-28T05:40:03;12.68;;;6.40;;
76417;SDS011;65250;47.602;19.002;2023-12-28T05:42:30;16.88;;;7.13;;
76417;SDS011;65250;47.602;19.002;2023-12-28T05:44:57;13.50;;;6.47;;
76417;SDS011;65250;47.602;19.002;2023-12-28T05:47:24;12.95;;;6.53;;
76417;SDS011;65250;47.602;19.002;2023-12-28T05:49:50;13.93;;;6.20;;
76417;SDS011;65250;47.602;19.002;2023-12-28T05:52:18;14.02;;;6.53;;
76417;SDS011;65250;47.602;19.002;2023-12-28T05:54:47;13.10;;;6.90;;
76417;SDS011;65250;47.602;19.002;2023-12-28T05:57:15;14.67;;;7.40;;
76417;SDS011;65250;47.602;19.002;2023-12-28T05:59:42;16.80;;;6.57;;
76417;SDS011;65250;47.602;19.002;2023-12-28T06:02:09;14.70;;;6.43;;
76417;SDS011;65250;47.602;19.002;2023-12-28T06:04:36;13.63;;;6.63;;
76417;SDS011;65250;47.602;19.002;2023-12-28T06:07:04;13.57;;;7.53;;
76417;SDS011;65250;47.602;19.002;2023-12-28T06:09:31;13.07;;;6.70;;
76417;SDS011;65250;47.602;19.002;2023-12-28T06:11:59;17.35;;;7.32;;
76417;SDS011;65250;47.602;19.002;2023-12-28T06:14:26;13.88;;;7.22;;
76417;SDS011;65250;47.602;19.002;2023-12-28T06:16:53;15.48;;;7.70;;
76417;SDS011;65250;47.602;19.002;2023-12-28T06:19:20;17.08;;;8.18;;
76417;SDS011;65250;47.602;19.002;2023-12-28T06:21:48;14.17;;;7.93;;
76417;SDS011;65250;47.602;19.002;2023-12-28T06:24:16;16.50;;;8.25;;
76417;SDS011;65250;47.602;19.002;2023-12-28T06:26:43;14.70;;;8.57;;
76417;SDS011;65250;47.602;19.002;2023-12-28T06:29:11;18.45;;;7.43;;
76417;SDS011;65250;47.602;19.002;2023-12-28T06:31:38;15.73;;;7.88;;
76417;SDS011;65250;47.602;19.002;2023-12-28T06:34:06;15.80;;;7.37;;
76417;SDS011;65250;47.602;19.002;2023-12-28T06:36:33;12.75;;;7.03;;
76417;SDS011;65250;47.602;19.002;2023-12-28T06:39:00;15.02;;;7.97;;
76417;SDS011;65250;47.602;19.002;2023-12-28T06:41:27;14.43;;;7.15;;
76417;SDS011;65250;47.602;19.002;2023-12-28T06:43:54;16.90;;;7.60;;
76417;SDS011;65250;47.602;19.002;2023-12-28T06:46:22;12.23;;;6.80;;
76417;SDS011;65250;47.602;19.002;2023-12-28T06:48:49;14.60;;;7.13;;
76417;SDS011;65250;47.602;19.002;2023-12-28T06:51:16;15.50;;;7.35;;
76417;SDS011;65250;47.602;19.002;2023-12-28T06:53:45;18.05;;;8.13;;
76417;SDS011;65250;47.602;19.002;2023-12-28T06:56:13;18.58;;;7.93;;
76417;SDS011;65250;47.602;19.002;2023-12-28T06:58:40;16.30;;;7.83;;
76417;SDS011;65250;47.602;19.002;2023-12-28T07:01:07;16.17;;;7.82;;
76417;SDS011;65250;47.602;19.002;2023-12-28T07:03:35;13.65;;;7.68;;
76417;SDS011;65250;47.602;19.002;2023-12-28T07:06:02;17.40;;;8.43;;
76417;SDS011;65250;47.602;19.002;2023-12-28T07:08:29;18.08;;;8.73;;
76417;SDS011;65250;47.602;19.002;2023-12-28T07:11:02;14.13;;;7.63;;
76417;SDS011;65250;47.602;19.002;2023-12-28T07:13:30;16.52;;;7.57;;
76417;SDS011;65250;47.602;19.002;2023-12-28T07:15:57;14.77;;;7.40;;
76417;SDS011;65250;47.602;19.002;2023-12-28T07:18:26;16.88;;;7.60;;
76417;SDS011;65250;47.602;19.002;2023-12-28T07:20:54;13.15;;;7.60;;
76417;SDS011;65250;47.602;19.002;2023-12-28T07:23:21;17.53;;;7.93;;
76417;SDS011;65250;47.602;19.002;2023-12-28T07:25:48;18.10;;;7.55;;
76417;SDS011;65250;47.602;19.002;2023-12-28T07:28:15;16.70;;;8.75;;
76417;SDS011;65250;47.602;19.002;2023-12-28T07:30:42;16.02;;;8.43;;
76417;SDS011;65250;47.602;19.002;2023-12-28T07:33:10;14.68;;;7.70;;
76417;SDS011;65250;47.602;19.002;2023-12-28T07:35:37;17.67;;;9.07;;
76417;SDS011;65250;47.602;19.002;2023-12-28T07:38:04;16.15;;;8.75;;
76417;SDS011;65250;47.602;19.002;2023-12-28T07:40:31;17.88;;;8.27;;
76417;SDS011;65250;47.602;19.002;2023-12-28T07:42:58;16.73;;;9.75;;
76417;SDS011;65250;47.602;19.002;2023-12-28T07:45:25;16.17;;;8.68;;
76417;SDS011;65250;47.602;19.002;2023-12-28T07:47:52;16.17;;;9.33;;
76417;SDS011;65250;47.602;19.002;2023-12-28T07:50:19;17.50;;;9.27;;
76417;SDS011;65250;47.602;19.002;2023-12-28T07:52:48;20.30;;;10.30;;
76417;SDS011;65250;47.602;19.002;2023-12-28T07:55:15;17.63;;;10.45;;
76417;SDS011;65250;47.602;19.002;2023-12-28T07:57:42;17.75;;;10.00;;
76417;SDS011;65250;47.602;19.002;2023-12-28T08:00:10;20.90;;;10.03;;
76417;SDS011;65250;47.602;19.002;2023-12-28T08:02:37;21.02;;;11.23;;
76417;SDS011;65250;47.602;19.002;2023-12-28T08:05:04;22.52;;;12.60;;
76417;SDS011;65250;47.602;19.002;2023-12-28T08:07:32;23.73;;;14.35;;
76417;SDS011;65250;47.602;19.002;2023-12-28T08:09:59;23.85;;;13.35;;
76417;SDS011;65250;47.602;19.002;2023-12-28T08:12:27;21.50;;;13.87;;
76417;SDS011;65250;47.602;19.002;2023-12-28T08:14:55;20.17;;;12.38;;
76417;SDS011;65250;47.602;19.002;2023-12-28T08:17:22;19.35;;;11.55;;
76417;SDS011;65250;47.602;19.002;2023-12-28T08:19:50;19.42;;;12.25;;
76417;SDS011;65250;47.602;19.002;2023-12-28T08:22:17;19.38;;;11.27;;
76417;SDS011;65250;47.602;19.002;2023-12-28T08:24:45;23.27;;;12.00;;
76417;SDS011;65250;47.602;19.002;2023-12-28T08:27:12;20.35;;;13.07;;
76417;SDS011;65250;47.602;19.002;2023-12-28T08:29:40;20.13;;;12.60;;
76417;SDS011;65250;47.602;19.002;2023-12-28T08:32:09;21.08;;;12.57;;
76417;SDS011;65250;47.602;19.002;2023-12-28T08:34:37;21.20;;;12.27;;
76417;SDS011;65250;47.602;19.002;2023-12-28T08:37:05;20.60;;;12.43;;
76417;SDS011;65250;47.602;19.002;2023-12-28T08:39:32;16.98;;;10.32;;
76417;SDS011;65250;47.602;19.002;2023-12-28T08:41:59;20.63;;;10.40;;
76417;SDS011;65250;47.602;19.002;2023-12-28T08:44:26;22.17;;;10.93;;
76417;SDS011;65250;47.602;19.002;2023-12-28T08:46:53;26.10;;;11.93;;
76417;SDS011;65250;47.602;19.002;2023-12-28T08:49:20;18.77;;;11.63;;
76417;SDS011;65250;47.602;19.002;2023-12-28T08:51:49;19.15;;;11.18;;
76417;SDS011;65250;47.602;19.002;2023-12-28T08:54:16;17.58;;;10.82;;
76417;SDS011;65250;47.602;19.002;2023-12-28T08:56:43;13.73;;;7.78;;
76417;SDS011;65250;47.602;19.002;2023-12-28T08:59:10;13.00;;;7.85;;
76417;SDS011;65250;47.602;19.002;2023-12-28T09:01:37;13.63;;;7.87;;
76417;SDS011;65250;47.602;19.002;2023-12-28T09:04:04;15.88;;;7.85;;
76417;SDS011;65250;47.602;19.002;2023-12-28T09:06:31;11.70;;;7.40;;
76417;SDS011;65250;47.602;19.002;2023-12-28T09:08:59;14.48;;;7.55;;
76417;SDS011;65250;47.602;19.002;2023-12-28T09:11:26;11.32;;;6.43;;
76417;SDS011;65250;47.602;19.002;2023-12-28T09:13:53;11.70;;;7.63;;
76417;SDS011;65250;47.602;19.002;2023-12-28T09:16:20;15.23;;;8.23;;
76417;SDS011;65250;47.602;19.002;2023-12-28T09:18:47;15.30;;;8.57;;
76417;SDS011;65250;47.602;19.002;2023-12-28T09:21:14;12.55;;;8.13;;
76417;SDS011;65250;47.602;19.002;2023-12-28T09:23:41;13.13;;;7.50;;
76417;SDS011;65250;47.602;19.002;2023-12-28T09:26:09;14.47;;;8.70;;
76417;SDS011;65250;47.602;19.002;2023-12-28T09:28:36;13.05;;;8.68;;
76417;SDS011;65250;47.602;19.002;2023-12-28T09:31:03;15.48;;;8.85;;
76417;SDS011;65250;47.602;19.002;2023-12-28T09:33:31;14.98;;;8.82;;
76417;SDS011;65250;47.602;19.002;2023-12-28T09:35:58;17.63;;;9.20;;
76417;SDS011;65250;47.602;19.002;2023-12-28T09:38:26;15.40;;;9.07;;
76417;SDS011;65250;47.602;19.002;2023-12-28T09:40:54;11.35;;;7.53;;
76417;SDS011;65250;47.602;19.002;2023-12-28T09:43:23;13.02;;;8.07;;
76417;SDS011;65250;47.602;19.002;2023-12-28T09:45:54;15.40;;;9.10;;
76417;SDS011;65250;47.602;19.002;2023-12-28T09:48:21;17.05;;;9.90;;
76417;SDS011;65250;47.602;19.002;2023-12-28T09:50:50;16.67;;;9.57;;
76417;SDS011;65250;47.602;19.002;2023-12-28T09:53:24;15.23;;;8.57;;
76417;SDS011;65250;47.602;19.002;2023-12-28T09:55:51;13.38;;;8.68;;
76417;SDS011;65250;47.602;19.002;2023-12-28T09:58:19;14.68;;;9.35;;
76417;SDS011;65250;47.602;19.002;2023-12-28T10:00:48;14.05;;;8.55;;
76417;SDS011;65250;47.602;19.002;2023-12-28T10:03:16;13.83;;;8.13;;
76417;SDS011;65250;47.602;19.002;2023-12-28T10:05:44;16.08;;;9.57;;
76417;SDS011;65250;47.602;19.002;2023-12-28T10:08:14;14.13;;;8.52;;
76417;SDS011;65250;47.602;19.002;2023-12-28T10:10:43;14.48;;;9.00;;
76417;SDS011;65250;47.602;19.002;2023-12-28T10:13:18;16.05;;;9.32;;
76417;SDS011;65250;47.602;19.002;2023-12-28T10:15:44;17.03;;;9.27;;
76417;SDS011;65250;47.602;19.002;2023-12-28T10:18:11;14.18;;;9.05;;
76417;SDS011;65250;47.602;19.002;2023-12-28T10:20:39;16.48;;;9.85;;
76417;SDS011;65250;47.602;19.002;2023-12-28T10:23:06;14.43;;;9.02;;
76417;SDS011;65250;47.602;19.002;2023-12-28T10:25:34;16.08;;;9.80;;
76417;SDS011;65250;47.602;19.002;2023-12-28T10:28:05;16.93;;;9.80;;
76417;SDS011;65250;47.602;19.002;2023-12-28T10:30:35;18.67;;;9.98;;
76417;SDS011;65250;47.602;19.002;2023-12-28T10:33:04;15.25;;;9.60;;
76417;SDS011;65250;47.602;19.002;2023-12-28T10:35:33;15.68;;;9.80;;
76417;SDS011;65250;47.602;19.002;2023-12-28T10:38:00;18.23;;;11.35;;
76417;SDS011;65250;47.602;19.002;2023-12-28T10:40:30;16.23;;;10.20;;
76417;SDS011;65250;47.602;19.002;2023-12-28T10:43:02;16.95;;;10.63;;
76417;SDS011;65250;47.602;19.002;2023-12-28T10:45:32;18.88;;;11.13;;
76417;SDS011;65250;47.602;19.002;2023-12-28T10:48:09;16.30;;;10.23;;
76417;SDS011;65250;47.602;19.002;2023-12-28T10:50:42;19.80;;;10.80;;
76417;SDS011;65250;47.602;19.002;2023-12-28T11:01:49;20.25;;;11.10;;
76417;SDS011;65250;47.602;19.002;2023-12-28T11:04:23;16.35;;;10.25;;
76417;SDS011;65250;47.602;19.002;2023-12-28T11:06:53;20.80;;;10.60;;
76417;SDS011;65250;47.602;19.002;2023-12-28T11:09:20;15.98;;;10.63;;
76417;SDS011;65250;47.602;19.002;2023-12-28T11:11:49;16.55;;;11.00;;
76417;SDS011;65250;47.602;19.002;2023-12-28T11:14:17;14.93;;;10.23;;
76417;SDS011;65250;47.602;19.002;2023-12-28T11:16:44;17.98;;;11.10;;
76417;SDS011;65250;47.602;19.002;2023-12-28T11:19:11;16.23;;;10.73;;
76417;SDS011;65250;47.602;19.002;2023-12-28T11:21:38;17.98;;;10.60;;
76417;SDS011;65250;47.602;19.002;2023-12-28T11:24:06;14.38;;;10.00;;
76417;SDS011;65250;47.602;19.002;2023-12-28T11:26:33;14.85;;;10.15;;
76417;SDS011;65250;47.602;19.002;2023-12-28T11:29:03;17.23;;;11.60;;
76417;SDS011;65250;47.602;19.002;2023-12-28T11:31:34;16.80;;;10.87;;
76417;SDS011;65250;47.602;19.002;2023-12-28T11:34:04;17.02;;;10.98;;
76417;SDS011;65250;47.602;19.002;2023-12-28T11:36:37;15.32;;;10.90;;
76417;SDS011;65250;47.602;19.002;2023-12-28T11:39:10;14.90;;;10.88;;
76417;SDS011;65250;47.602;19.002;2023-12-28T11:41:37;15.73;;;11.88;;
76417;SDS011;65250;47.602;19.002;2023-12-28T11:44:04;19.87;;;11.93;;
76417;SDS011;65250;47.602;19.002;2023-12-28T11:46:32;19.88;;;12.27;;
76417;SDS011;65250;47.602;19.002;2023-12-28T11:49:03;21.25;;;11.55;;
76417;SDS011;65250;47.602;19.002;2023-12-28T11:51:35;17.45;;;12.48;;
76417;SDS011;65250;47.602;19.002;2023-12-28T11:54:04;19.42;;;12.40;;
76417;SDS011;65250;47.602;19.002;2023-12-28T11:56:31;18.67;;;12.30;;
76417;SDS011;65250;47.602;19.002;2023-12-28T11:59:01;22.05;;;11.85;;
76417;SDS011;65250;47.602;19.002;2023-12-28T12:01:28;17.85;;;11.50;;
76417;SDS011;65250;47.602;19.002;2023-12-28T12:03:55;16.88;;;11.45;;
76417;SDS011;65250;47.602;19.002;2023-12-28T12:06:22;16.83;;;10.80;;
76417;SDS011;65250;47.602;19.002;2023-12-28T12:08:50;18.83;;;11.63;;
76417;SDS011;65250;47.602;19.002;2023-12-28T12:11:17;15.50;;;11.20;;
76417;SDS011;65250;47.602;19.002;2023-12-28T12:13:45;18.83;;;11.40;;
76417;SDS011;65250;47.602;19.002;2023-12-28T12:16:16;16.52;;;11.70;;
76417;SDS011;65250;47.602;19.002;2023-12-28T12:18:43;15.13;;;11.15;;
76417;SDS011;65250;47.602;19.002;2023-12-28T12:21:10;18.00;;;11.40;;
76417;SDS011;65250;47.602;19.002;2023-12-28T12:23:37;15.60;;;11.45;;
76417;SDS011;65250;47.602;19.002;2023-12-28T12:26:05;18.60;;;11.60;;
76417;SDS011;65250;47.602;19.002;2023-12-28T12:28:32;17.30;;;11.50;;
76417;SDS011;65250;47.602;19.002;2023-12-28T12:30:59;16.42;;;12.07;;
76417;SDS011;65250;47.602;19.002;2023-12-28T12:33:28;19.07;;;12.03;;
76417;SDS011;65250;47.602;19.002;2023-12-28T12:35:55;19.25;;;11.73;;
76417;SDS011;65250;47.602;19.002;2023-12-28T12:38:22;19.35;;;13.25;;
76417;SDS011;65250;47.602;19.002;2023-12-28T12:40:52;18.75;;;12.57;;
76417;SDS011;65250;47.602;19.002;2023-12-28T12:43:19;21.90;;;13.23;;
76417;SDS011;65250;47.602;19.002;2023-12-28T12:45:49;16.63;;;11.50;;
76417;SDS011;65250;47.602;19.002;2023-12-28T12:48:16;20.63;;;11.43;;
76417;SDS011;65250;47.602;19.002;2023-12-28T12:50:43;19.13;;;11.80;;
76417;SDS011;65250;47.602;19.002;2023-12-28T12:53:10;18.90;;;12.00;;
76417;SDS011;65250;47.602;19.002;2023-12-28T12:55:40;17.33;;;10.88;;
76417;SDS011;65250;47.602;19.002;2023-12-28T12:58:12;21.40;;;12.30;;
76417;SDS011;65250;47.602;19.002;2023-12-28T13:00:40;18.95;;;10.85;;
76417;SDS011;65250;47.602;19.002;2023-12-28T13:03:07;16.42;;;11.07;;
76417;SDS011;65250;47.602;19.002;2023-12-28T13:05:36;19.45;;;11.63;;
76417;SDS011;65250;47.602;19.002;2023-12-28T13:08:04;18.00;;;11.02;;
76417;SDS011;65250;47.602;19.002;2023-12-28T13:10:31;17.17;;;11.83;;
76417;SDS011;65250;47.602;19.002;2023-12-28T13:12:58;19.10;;;11.05;;
76417;SDS011;65250;47.602;19.002;2023-12-28T13:15:28;18.83;;;11.43;;
76417;SDS011;65250;47.602;19.002;2023-12-28T13:17:55;20.67;;;11.98;;
76417;SDS011;65250;47.602;19.002;2023-12-28T13:20:22;20.58;;;11.82;;
76417;SDS011;65250;47.602;19.002;2023-12-28T13:22:49;21.83;;;12.27;;
76417;SDS011;65250;47.602;19.002;2023-12-28T13:25:16;22.35;;;11.98;;
76417;SDS011;65250;47.602;19.002;2023-12-28T13:27:43;19.85;;;11.77;;
76417;SDS011;65250;47.602;19.002;2023-12-28T13:30:10;19.92;;;11.85;;
76417;SDS011;65250;47.602;19.002;2023-12-28T13:32:39;18.65;;;11.48;;
76417;SDS011;65250;47.602;19.002;2023-12-28T13:35:06;21.33;;;12.03;;
76417;SDS011;65250;47.602;19.002;2023-12-28T13:37:33;19.65;;;13.05;;
76417;SDS011;65250;47.602;19.002;2023-12-28T13:40:00;20.27;;;11.52;;
76417;SDS011;65250;47.602;19.002;2023-12-28T13:42:27;20.85;;;11.60;;
76417;SDS011;65250;47.602;19.002;2023-12-28T13:44:54;19.83;;;11.32;;
76417;SDS011;65250;47.602;19.002;2023-12-28T13:47:21;18.23;;;10.47;;
76417;SDS011;65250;47.602;19.002;2023-12-28T13:49:48;19.23;;;11.40;;
76417;SDS011;65250;47.602;19.002;2023-12-28T13:52:15;18.55;;;11.27;;
76417;SDS011;65250;47.602;19.002;2023-12-28T13:54:42;18.20;;;10.30;;
76417;SDS011;65250;47.602;19.002;2023-12-28T13:57:09;20.60;;;11.45;;
76417;SDS011;65250;47.602;19.002;2023-12-28T13:59:35;19.33;;;10.23;;
76417;SDS011;65250;47.602;19.002;2023-12-28T14:02:03;16.23;;;9.88;;
76417;SDS011;65250;47.602;19.002;2023-12-28T14:04:30;20.90;;;11.27;;
76417;SDS011;65250;47.602;19.002;2023-12-28T14:06:57;18.33;;;10.68;;
76417;SDS011;65250;47.602;19.002;2023-12-28T14:09:25;19.00;;;10.57;;
76417;SDS011;65250;47.602;19.002;2023-12-28T14:11:51;21.13;;;10.60;;
76417;SDS011;65250;47.602;19.002;2023-12-28T14:14:18;19.67;;;10.52;;
76417;SDS011;65250;47.602;19.002;2023-12-28T14:16:47;19.05;;;11.30;;
76417;SDS011;65250;47.602;19.002;2023-12-28T14:19:14;18.60;;;10.52;;
76417;SDS011;65250;47.602;19.002;2023-12-28T14:21:41;19.30;;;10.88;;
76417;SDS011;65250;47.602;19.002;2023-12-28T14:24:08;20.13;;;11.17;;
76417;SDS011;65250;47.602;19.002;2023-12-28T14:26:38;19.80;;;10.70;;
76417;SDS011;65250;47.602;19.002;2023-12-28T14:29:08;17.30;;;11.57;;
76417;SDS011;65250;47.602;19.002;2023-12-28T14:31:36;19.63;;;10.50;;
76417;SDS011;65250;47.602;19.002;2023-12-28T14:34:04;17.45;;;10.10;;
76417;SDS011;65250;47.602;19.002;2023-12-28T14:36:33;19.93;;;11.53;;